createdAt,value
2022-10-23T00:01:14.635Z,90.43
2022-10-23T00:03:42.614Z,90.10
2022-10-23T00:06:10.756Z,90.31
2022-10-23T00:08:39.113Z,90.22
2022-10-23T00:11:08.717Z,90.07
2022-10-23T00:13:38.403Z,90.21
2022-10-23T00:16:06.988Z,90.30
2022-10-23T00:18:35.152Z,90.17
2022-10-23T00:21:03.341Z,89.96
2022-10-23T00:23:31.326Z,90.21
2022-10-23T00:26:00.195Z,90.12
2022-10-23T00:28:28.289Z,89.94
2022-10-23T00:30:57.684Z,90.12
2022-10-23T00:33:25.682Z,90.20
2022-10-23T00:35:53.703Z,90.27
2022-10-23T00:38:21.702Z,89.83
2022-10-23T00:43:27.614Z,90.21
2022-10-23T00:45:57.512Z,90.21
2022-10-23T00:48:26.537Z,90.37
2022-10-23T00:50:54.784Z,90.17
2022-10-23T00:53:23.774Z,90.09
2022-10-23T00:55:53.170Z,90.04
2022-10-23T00:58:21.671Z,89.86
2022-10-23T01:00:51.598Z,90.22
2022-10-23T01:03:24.113Z,90.17
2022-10-23T01:05:55.362Z,90.23
2022-10-23T01:08:29.619Z,90.34
2022-10-23T01:11:01.451Z,90.21
2022-10-23T01:13:36.372Z,90.44
2022-10-23T01:16:12.124Z,90.35
2022-10-23T01:18:46.624Z,90.44
2022-10-23T01:21:18.254Z,90.16
2022-10-23T01:24:02.555Z,90.14
2022-10-23T01:26:56.403Z,90.13
2022-10-23T01:29:31.011Z,90.24
2022-10-23T01:32:02.582Z,90.60
2022-10-23T01:34:33.869Z,90.27
2022-10-23T01:37:03.215Z,90.18
2022-10-23T01:39:35.078Z,90.29
2022-10-23T01:42:06.365Z,90.13
2022-10-23T01:44:37.421Z,90.15
2022-10-23T01:47:08.427Z,90.54
2022-10-23T01:49:37.512Z,90.27
2022-10-23T01:52:08.354Z,90.12
2022-10-23T01:54:39.709Z,90.20
2022-10-23T01:57:09.277Z,90.38
2022-10-23T01:59:42.614Z,90.12
2022-10-23T02:02:11.817Z,90.46
2022-10-23T02:04:42.510Z,90.34
2022-10-23T02:07:10.513Z,90.38
2022-10-23T02:09:39.178Z,90.49
2022-10-23T02:12:09.371Z,90.51
2022-10-23T02:14:47.549Z,90.67
2022-10-23T02:17:21.948Z,90.78
2022-10-23T02:19:56.893Z,90.54
2022-10-23T02:22:28.113Z,90.65
2022-10-23T02:25:00.745Z,90.55
2022-10-23T02:27:33.018Z,90.69
2022-10-23T02:30:06.319Z,90.66
2022-10-23T02:32:35.733Z,90.60
2022-10-23T02:35:04.074Z,90.66
2022-10-23T02:37:32.048Z,90.68
2022-10-23T02:40:00.066Z,90.83
2022-10-23T02:42:30.987Z,90.84
2022-10-23T02:45:07.240Z,90.62
2022-10-23T02:47:46.059Z,90.66
2022-10-23T02:50:19.649Z,90.71
2022-10-23T02:52:52.172Z,90.85
2022-10-23T02:55:30.801Z,90.88
2022-10-23T02:58:04.329Z,90.77
2022-10-23T03:00:34.101Z,90.71
2022-10-23T03:03:07.077Z,90.44
2022-10-23T03:05:37.779Z,90.54
2022-10-23T03:08:06.224Z,90.59
2022-10-23T03:10:34.293Z,90.53
2022-10-23T03:13:02.289Z,90.27
2022-10-23T03:15:30.265Z,90.39
2022-10-23T03:17:59.636Z,90.27
2022-10-23T03:20:27.616Z,90.53
2022-10-23T03:22:55.631Z,90.60
2022-10-23T03:25:23.601Z,90.66
2022-10-23T03:27:51.675Z,90.69
2022-10-23T03:30:19.907Z,90.36
2022-10-23T03:32:47.901Z,90.70
2022-10-23T03:35:17.354Z,90.65
2022-10-23T03:37:45.507Z,90.59
2022-10-23T03:40:13.653Z,90.44
2022-10-23T03:42:41.647Z,90.31
2022-10-23T03:45:10.403Z,90.75
2022-10-23T03:47:41.401Z,90.72
2022-10-23T03:50:10.938Z,90.43
2022-10-23T03:52:40.620Z,90.51
2022-10-23T03:55:10.075Z,90.47
2022-10-23T03:57:38.185Z,90.61
2022-10-23T04:00:07.620Z,90.79
2022-10-23T04:02:35.721Z,90.77
2022-10-23T04:05:03.861Z,90.44
2022-10-23T04:07:31.841Z,90.88
2022-10-23T04:10:01.213Z,90.47
2022-10-23T04:12:29.187Z,90.77
2022-10-23T04:14:57.241Z,90.71
2022-10-23T04:17:25.336Z,90.58
2022-10-23T04:19:53.425Z,90.84
2022-10-23T04:22:24.679Z,90.59
2022-10-23T04:24:55.526Z,90.65
2022-10-23T04:27:24.875Z,90.68
2022-10-23T04:29:55.498Z,90.52
2022-10-23T04:32:26.382Z,90.78
2022-10-23T04:34:54.357Z,90.67
2022-10-23T04:37:22.360Z,90.70
2022-10-23T04:39:50.321Z,90.49
2022-10-23T04:42:18.412Z,90.89
2022-10-23T04:44:47.789Z,90.67
2022-10-23T04:47:15.792Z,90.49
2022-10-23T04:49:43.822Z,90.85
2022-10-23T04:52:11.797Z,90.50
2022-10-23T04:54:40.339Z,90.43
2022-10-23T04:57:08.314Z,90.78
2022-10-23T04:59:36.541Z,90.58
2022-10-23T05:02:06.035Z,90.80
2022-10-23T05:04:34.065Z,90.50
2022-10-23T05:07:02.050Z,90.65
2022-10-23T05:09:30.074Z,90.58
2022-10-23T05:11:58.109Z,90.64
2022-10-23T05:14:26.153Z,90.40
2022-10-23T05:16:57.563Z,90.74
2022-10-23T05:19:30.625Z,90.50
2022-10-23T05:21:58.719Z,90.67
2022-10-23T05:24:27.331Z,90.59
2022-10-23T05:26:55.428Z,90.55
2022-10-23T05:29:23.416Z,90.43
2022-10-23T05:31:54.949Z,90.47
2022-10-23T05:34:25.577Z,90.55
2022-10-23T05:36:55.378Z,90.57
2022-10-23T05:39:23.449Z,90.35
2022-10-23T05:41:52.360Z,90.41
2022-10-23T05:44:20.367Z,90.42
2022-10-23T05:46:48.379Z,90.67
2022-10-23T05:49:16.347Z,90.60
2022-10-23T05:51:44.330Z,90.70
2022-10-23T05:54:13.695Z,90.31
2022-10-23T05:56:42.494Z,90.34
2022-10-23T05:59:10.889Z,90.39
2022-10-23T06:01:39.114Z,90.50
2022-10-23T06:04:07.224Z,90.69
2022-10-23T06:06:36.741Z,90.67
2022-10-23T06:09:04.968Z,90.54
2022-10-23T06:11:34.347Z,90.59
2022-10-23T06:14:02.325Z,90.52
2022-10-23T06:16:30.465Z,90.81
2022-10-23T06:18:58.532Z,90.48
2022-10-23T06:21:26.538Z,90.62
2022-10-23T06:23:56.038Z,90.56
2022-10-23T06:26:24.477Z,90.65
2022-10-23T06:28:53.826Z,90.56
2022-10-23T06:31:26.538Z,90.70
2022-10-23T06:33:54.572Z,90.87
2022-10-23T06:36:22.691Z,90.91
2022-10-23T06:38:51.981Z,90.51
2022-10-23T06:41:21.988Z,90.68
2022-10-23T06:43:50.813Z,90.77
2022-10-23T06:46:20.371Z,90.70
2022-10-23T06:48:48.480Z,90.67
2022-10-23T06:51:18.425Z,90.73
2022-10-23T06:53:46.960Z,90.90
2022-10-23T06:56:14.997Z,90.51
2022-10-23T06:58:43.011Z,90.80
2022-10-23T07:01:13.146Z,90.59
2022-10-23T07:03:42.734Z,90.79
2022-10-23T07:06:11.771Z,90.43
2022-10-23T07:08:40.095Z,90.53
2022-10-23T07:11:09.047Z,90.61
2022-10-23T07:13:38.569Z,90.74
2022-10-23T07:16:14.380Z,90.96
2022-10-23T07:18:44.119Z,90.79
2022-10-23T07:21:12.283Z,90.63
2022-10-23T07:23:40.382Z,90.93
2022-10-23T07:26:09.566Z,90.71
2022-10-23T07:28:37.756Z,90.72
2022-10-23T07:31:06.083Z,90.63
2022-10-23T07:33:34.118Z,90.59
2022-10-23T07:36:05.292Z,90.69
2022-10-23T07:38:33.310Z,90.63
2022-10-23T07:41:01.797Z,90.84
2022-10-23T07:43:29.964Z,90.45
2022-10-23T07:45:57.951Z,90.55
2022-10-23T07:48:27.268Z,90.67
2022-10-23T07:50:55.734Z,90.46
2022-10-23T07:53:26.752Z,90.74
2022-10-23T07:55:55.264Z,90.53
2022-10-23T07:58:23.515Z,90.42
2022-10-23T08:00:56.417Z,90.36
2022-10-23T08:03:24.541Z,90.21
2022-10-23T08:05:53.547Z,90.71
2022-10-23T08:08:21.550Z,90.56
2022-10-23T08:10:52.125Z,90.57
2022-10-23T08:13:21.077Z,90.25
2022-10-23T08:15:50.508Z,90.26
2022-10-23T08:18:18.531Z,90.46
2022-10-23T08:20:47.810Z,90.86
2022-10-23T08:23:18.526Z,90.21
2022-10-23T08:25:47.309Z,90.13
2022-10-23T08:28:16.887Z,90.15
2022-10-23T08:30:44.991Z,90.30
2022-10-23T08:33:13.011Z,90.53
2022-10-23T08:35:41.087Z,90.21
2022-10-23T08:38:09.111Z,90.38
2022-10-23T08:40:37.539Z,90.37
2022-10-23T08:43:13.649Z,90.05
2022-10-23T08:45:46.387Z,90.07
2022-10-23T08:48:19.547Z,90.02
2022-10-23T08:50:50.660Z,89.92
2022-10-23T08:53:23.263Z,90.37
2022-10-23T08:55:56.395Z,90.38
2022-10-23T08:58:29.453Z,90.41
2022-10-23T09:00:59.021Z,89.95
2022-10-23T09:03:27.567Z,89.84
2022-10-23T09:06:07.517Z,89.94
2022-10-23T09:08:48.257Z,89.74
2022-10-23T09:11:23.027Z,89.83
2022-10-23T09:14:21.702Z,89.57
2022-10-23T09:17:01.475Z,89.79
2022-10-23T09:19:31.315Z,89.86
2022-10-23T09:21:59.539Z,89.85
2022-10-23T09:24:31.620Z,89.40
2022-10-23T09:27:00.547Z,89.53
2022-10-23T09:29:31.871Z,89.53
2022-10-23T09:32:02.749Z,89.60
2022-10-23T09:34:32.299Z,89.63
2022-10-23T09:37:02.418Z,89.26
2022-10-23T09:39:31.650Z,89.33
2022-10-23T09:42:02.406Z,89.31
2022-10-23T09:44:31.566Z,89.24
2022-10-23T09:47:11.363Z,89.27
2022-10-23T09:49:47.343Z,88.91
2022-10-23T09:52:25.112Z,88.98
2022-10-23T09:54:56.342Z,89.12
2022-10-23T09:57:26.702Z,89.10
2022-10-23T09:59:56.251Z,89.13
2022-10-23T10:02:29.404Z,88.81
2022-10-23T10:04:57.648Z,89.10
2022-10-23T10:07:28.158Z,89.11
2022-10-23T10:09:58.985Z,89.10
2022-10-23T10:12:44.409Z,89.67
2022-10-23T10:15:18.922Z,89.59
2022-10-23T10:17:57.365Z,89.52
2022-10-23T10:20:44.587Z,89.53
2022-10-23T10:23:20.209Z,89.39
2022-10-23T10:25:56.241Z,89.25
2022-10-23T10:28:32.649Z,88.99
2022-10-23T10:31:10.188Z,89.23
2022-10-23T10:33:48.394Z,89.00
2022-10-23T10:39:01.224Z,89.13
2022-10-23T10:41:47.623Z,88.78
2022-10-23T10:44:35.986Z,88.62
2022-10-23T10:47:13.269Z,88.70
2022-10-23T10:49:50.322Z,88.50
2022-10-23T10:52:26.227Z,88.83
2022-10-23T10:54:59.218Z,89.00
2022-10-23T10:57:33.095Z,88.50
2022-10-23T11:00:04.603Z,88.44
2022-10-23T11:02:36.663Z,88.51
2022-10-23T11:05:15.858Z,88.54
2022-10-23T11:07:53.646Z,88.61
2022-10-23T11:10:21.681Z,88.81
2022-10-23T11:12:50.401Z,88.94
2022-10-23T11:15:22.090Z,88.70
2022-10-23T11:17:52.321Z,88.87
2022-10-23T11:20:42.354Z,88.92
2022-10-23T11:23:29.834Z,88.78
2022-10-23T11:26:07.318Z,88.56
2022-10-23T11:28:49.332Z,88.37
2022-10-23T11:31:24.733Z,88.54
2022-10-23T11:34:28.019Z,88.24
2022-10-23T11:37:01.351Z,88.41
2022-10-23T11:39:30.939Z,88.17
2022-10-23T11:42:00.990Z,88.04
2022-10-23T11:44:41.413Z,88.10
2022-10-23T11:47:29.524Z,87.69
2022-10-23T11:50:14.616Z,87.99
2022-10-23T11:53:15.768Z,87.95
2022-10-23T11:55:59.342Z,88.09
2022-10-23T11:58:32.008Z,87.74
2022-10-23T12:01:06.753Z,87.61
2022-10-23T12:03:43.477Z,87.77
2022-10-23T12:06:22.102Z,87.94
2022-10-23T12:08:55.149Z,87.66
2022-10-23T12:11:43.222Z,87.57
2022-10-23T12:14:28.829Z,87.75
2022-10-23T12:16:56.879Z,87.74
2022-10-23T12:19:26.659Z,87.51
2022-10-23T12:21:56.195Z,87.58
2022-10-23T12:24:57.592Z,87.55
2022-10-23T12:27:36.675Z,87.50
2022-10-23T12:30:15.195Z,87.70
2022-10-23T12:33:02.583Z,87.68
2022-10-23T12:35:54.151Z,87.33
2022-10-23T12:38:24.068Z,87.26
2022-10-23T12:40:55.034Z,87.49
2022-10-23T12:43:27.105Z,87.58
2022-10-23T12:45:56.626Z,87.53
2022-10-23T12:48:25.668Z,87.61
2022-10-23T12:50:55.358Z,87.29
2022-10-23T12:53:24.309Z,87.26
2022-10-23T12:55:57.348Z,87.44
2022-10-23T12:58:27.404Z,87.37
2022-10-23T13:00:57.103Z,87.25
2022-10-23T13:03:27.042Z,87.05
2022-10-23T13:05:58.668Z,87.20
2022-10-23T13:08:33.608Z,87.24
2022-10-23T13:11:03.112Z,87.17
2022-10-23T13:13:31.187Z,87.03
2022-10-23T13:15:59.178Z,86.92
2022-10-23T13:18:27.199Z,86.88
2022-10-23T13:20:59.867Z,86.94
2022-10-23T13:23:32.225Z,87.03
2022-10-23T13:26:03.002Z,86.99
2022-10-23T13:28:33.170Z,86.88
2022-10-23T13:31:04.635Z,87.28
2022-10-23T13:33:35.506Z,86.94
2022-10-23T13:36:07.311Z,87.18
2022-10-23T13:38:36.953Z,87.04
2022-10-23T13:41:07.636Z,87.04
2022-10-23T13:43:36.357Z,87.45
2022-10-23T13:46:04.657Z,87.37
2022-10-23T13:48:34.435Z,87.22
2022-10-23T13:51:12.874Z,87.30
2022-10-23T13:53:40.902Z,87.43
2022-10-23T13:56:12.205Z,87.64
2022-10-23T13:58:40.379Z,87.75
2022-10-23T14:01:13.488Z,87.75
2022-10-23T14:03:41.601Z,87.78
2022-10-23T14:06:09.647Z,87.71
2022-10-23T14:08:37.696Z,87.68
2022-10-23T14:11:05.882Z,87.89
2022-10-23T14:13:35.288Z,87.77
2022-10-23T14:16:03.316Z,87.86
2022-10-23T14:18:31.273Z,88.20
2022-10-23T14:21:01.120Z,88.24
2022-10-23T14:23:29.353Z,87.94
2022-10-23T14:26:03.372Z,88.12
2022-10-23T14:28:31.372Z,88.24
2022-10-23T14:31:04.888Z,88.03
2022-10-23T14:33:32.900Z,88.18
2022-10-23T14:36:00.926Z,88.13
2022-10-23T14:38:28.954Z,88.25
2022-10-23T14:40:56.975Z,88.25
2022-10-23T14:43:25.313Z,88.36
2022-10-23T14:45:53.358Z,88.28
2022-10-23T14:48:22.717Z,88.23
2022-10-23T14:50:50.926Z,88.58
2022-10-23T14:53:18.893Z,88.42
2022-10-23T14:55:46.898Z,88.40
2022-10-23T14:58:15.344Z,88.30
2022-10-23T15:00:43.348Z,88.57
2022-10-23T15:03:11.311Z,88.60
2022-10-23T15:05:43.787Z,88.42
2022-10-23T15:08:11.770Z,88.63
2022-10-23T15:10:40.108Z,88.77
2022-10-23T15:13:08.110Z,88.53
2022-10-23T15:15:36.075Z,88.60
2022-10-23T15:18:04.173Z,88.62
2022-10-23T15:20:32.208Z,88.63
2022-10-23T15:23:02.971Z,88.57
2022-10-23T15:25:30.997Z,88.65
2022-10-23T15:27:59.022Z,88.45
2022-10-23T15:30:27.168Z,88.53
2022-10-23T15:32:55.132Z,88.53
2022-10-23T15:35:24.402Z,88.59
2022-10-23T15:37:52.496Z,88.68
2022-10-23T15:40:21.852Z,88.53
2022-10-23T15:42:51.643Z,88.61
2022-10-23T15:45:19.659Z,88.63
2022-10-23T15:47:47.617Z,88.78
2022-10-23T15:50:15.629Z,88.74
2022-10-23T15:52:43.782Z,88.78
2022-10-23T15:55:12.404Z,88.76
2022-10-23T15:57:42.157Z,88.82
2022-10-23T16:00:11.618Z,88.85
2022-10-23T16:02:39.719Z,89.17
2022-10-23T16:05:08.206Z,89.08
2022-10-23T16:07:36.220Z,89.04
2022-10-23T16:10:04.612Z,88.86
2022-10-23T16:12:32.665Z,89.15
2022-10-23T16:15:02.024Z,88.81
2022-10-23T16:17:30.311Z,88.80
2022-10-23T16:19:58.309Z,88.98
2022-10-23T16:22:27.164Z,89.26
2022-10-23T16:24:55.397Z,88.97
2022-10-23T16:27:23.421Z,88.88
2022-10-23T16:29:51.520Z,88.91
2022-10-23T16:32:20.941Z,88.87
2022-10-23T16:34:48.938Z,89.09
2022-10-23T16:37:16.946Z,89.06
2022-10-23T16:39:44.927Z,89.13
2022-10-23T16:42:13.005Z,88.94
2022-10-23T16:44:41.015Z,89.07
2022-10-23T16:47:09.276Z,89.16
2022-10-23T16:49:38.627Z,89.34
2022-10-23T16:52:06.608Z,89.21
2022-10-23T16:54:34.639Z,89.26
2022-10-23T16:57:02.649Z,89.15
2022-10-23T16:59:30.683Z,89.37
2022-10-23T17:01:58.736Z,89.57
2022-10-23T17:04:26.808Z,89.60
2022-10-23T17:06:56.431Z,89.19
2022-10-23T17:09:26.484Z,89.59
2022-10-23T17:11:54.757Z,89.29
2022-10-23T17:14:25.042Z,89.72
2022-10-23T17:16:53.327Z,89.30
2022-10-23T17:19:43.717Z,89.64
2022-10-23T17:22:13.482Z,89.75
2022-10-23T17:24:45.130Z,89.34
2022-10-23T17:27:15.610Z,89.39
2022-10-23T17:29:43.668Z,89.42
2022-10-23T17:32:11.770Z,89.24
2022-10-23T17:34:39.804Z,89.73
2022-10-23T17:37:07.958Z,89.54
2022-10-23T17:39:37.370Z,89.64
2022-10-23T17:42:05.494Z,89.44
2022-10-23T17:44:33.529Z,89.16
2022-10-23T17:47:01.546Z,89.26
2022-10-23T17:49:29.575Z,89.44
2022-10-23T17:51:58.748Z,89.15
2022-10-23T17:54:27.899Z,89.27
2022-10-23T17:56:57.616Z,89.37
2022-10-23T17:59:25.599Z,89.30
2022-10-23T18:01:53.820Z,89.45
2022-10-23T18:04:22.157Z,89.68
2022-10-23T18:06:52.448Z,89.24
2022-10-23T18:09:21.311Z,89.51
2022-10-23T18:11:50.108Z,89.46
2022-10-23T18:14:20.781Z,89.37
2022-10-23T18:16:49.687Z,89.21
2022-10-23T18:19:19.073Z,89.17
2022-10-23T18:21:47.495Z,89.47
2022-10-23T18:24:15.915Z,89.72
2022-10-23T18:26:44.628Z,89.85
2022-10-23T18:29:13.788Z,89.69
2022-10-23T18:31:43.181Z,89.66
2022-10-23T18:34:16.403Z,89.46
2022-10-23T18:36:44.492Z,89.51
2022-10-23T18:39:15.039Z,89.66
2022-10-23T18:41:45.515Z,89.75
2022-10-23T18:44:17.014Z,89.51
2022-10-23T18:46:46.931Z,89.71
2022-10-23T18:49:15.824Z,89.47
2022-10-23T18:51:43.845Z,89.34
2022-10-23T18:54:14.187Z,89.40
2022-10-23T18:56:42.331Z,89.39
2022-10-23T18:59:13.301Z,89.35
2022-10-23T19:01:41.638Z,89.30
2022-10-23T19:04:14.064Z,89.49
2022-10-23T19:06:42.489Z,89.33
2022-10-23T19:09:11.610Z,89.46
2022-10-23T19:11:40.460Z,89.26
2022-10-23T19:14:08.529Z,89.12
2022-10-23T19:16:39.669Z,89.34
2022-10-23T19:19:14.763Z,89.20
2022-10-23T19:21:43.392Z,89.36
2022-10-23T19:24:14.782Z,89.24
2022-10-23T19:26:43.147Z,89.29
2022-10-23T19:29:14.177Z,89.50
2022-10-23T19:31:44.705Z,89.40
2022-10-23T19:34:14.047Z,89.63
2022-10-23T19:36:42.035Z,89.68
2022-10-23T19:39:10.584Z,89.90
2022-10-23T19:41:38.560Z,89.37
2022-10-23T19:44:06.592Z,89.52
2022-10-23T19:46:36.471Z,89.56
2022-10-23T19:49:04.645Z,89.66
2022-10-23T19:51:34.058Z,89.44
2022-10-23T19:54:02.130Z,89.19
2022-10-23T19:56:30.140Z,89.55
2022-10-23T19:58:58.102Z,89.08
2022-10-23T20:01:26.623Z,89.28
2022-10-23T20:03:55.468Z,89.67
2022-10-23T20:06:25.161Z,89.50
2022-10-23T20:08:54.900Z,89.22
2022-10-23T20:11:25.967Z,89.55
2022-10-23T20:13:54.029Z,89.42
2022-10-23T20:16:23.713Z,89.49
2022-10-23T20:18:52.104Z,89.47
2022-10-23T20:21:20.585Z,89.45
2022-10-23T20:23:48.973Z,89.55
2022-10-23T20:26:21.271Z,89.40
2022-10-23T20:28:52.487Z,89.28
2022-10-23T20:31:23.009Z,89.45
2022-10-23T20:33:51.567Z,89.02
2022-10-23T20:36:25.182Z,89.19
2022-10-23T20:38:53.614Z,89.27
2022-10-23T20:41:25.016Z,88.98
2022-10-23T20:43:53.033Z,89.44
2022-10-23T20:46:21.022Z,89.16
2022-10-23T20:48:49.059Z,88.98
2022-10-23T20:51:18.729Z,89.29
2022-10-23T20:53:47.748Z,89.30
2022-10-23T20:56:17.583Z,88.88
2022-10-23T20:58:47.055Z,89.25
2022-10-23T21:01:17.458Z,89.40
2022-10-23T21:03:50.147Z,89.29
2022-10-23T21:06:18.987Z,89.16
2022-10-23T21:08:47.079Z,88.96
2022-10-23T21:11:16.609Z,89.07
2022-10-23T21:13:46.545Z,89.38
2022-10-23T21:16:15.864Z,89.08
2022-10-23T21:18:46.371Z,89.16
2022-10-23T21:21:17.306Z,89.18
2022-10-23T21:23:45.920Z,88.96
2022-10-23T21:26:14.900Z,89.38
2022-10-23T21:28:55.678Z,89.12
2022-10-23T21:31:34.915Z,89.52
2022-10-23T21:34:03.237Z,89.52
2022-10-23T21:36:34.252Z,89.20
2022-10-23T21:39:07.827Z,89.43
2022-10-23T21:41:35.877Z,89.50
2022-10-23T21:44:06.575Z,89.43
2022-10-23T21:46:35.910Z,89.16
2022-10-23T21:49:04.605Z,89.19
2022-10-23T21:51:35.325Z,89.22
2022-10-23T21:54:03.389Z,89.09
2022-10-23T21:56:33.876Z,89.43
2022-10-23T21:59:03.138Z,89.31
2022-10-23T22:01:32.604Z,89.51
2022-10-23T22:04:00.676Z,89.10
2022-10-23T22:06:30.099Z,89.28
2022-10-23T22:08:59.624Z,89.08
2022-10-23T22:11:28.407Z,89.35
2022-10-23T22:13:57.067Z,89.17
2022-10-23T22:16:25.107Z,89.37
2022-10-23T22:18:54.476Z,89.10
2022-10-23T22:21:25.174Z,89.44
2022-10-23T22:23:55.505Z,89.54
2022-10-23T22:26:25.102Z,89.23
2022-10-23T22:28:54.738Z,89.47
2022-10-23T22:31:24.632Z,89.48
2022-10-23T22:33:54.594Z,89.72
2022-10-23T22:36:22.697Z,89.70
2022-10-23T22:38:50.763Z,89.79
2022-10-23T22:41:19.140Z,89.51
2022-10-23T22:43:47.201Z,89.77
2022-10-23T22:46:17.673Z,89.87
2022-10-23T22:48:46.785Z,89.90
2022-10-23T22:51:17.840Z,89.86
2022-10-23T22:53:45.893Z,89.73
2022-10-23T22:56:15.244Z,89.96
2022-10-23T22:58:43.519Z,89.73
2022-10-23T23:01:15.549Z,89.88
2022-10-23T23:03:44.413Z,89.69
2022-10-23T23:06:13.395Z,89.80
2022-10-23T23:08:43.385Z,89.90
2022-10-23T23:11:14.124Z,89.81
2022-10-23T23:13:43.064Z,89.88
2022-10-23T23:16:20.126Z,89.86
2022-10-23T23:18:48.247Z,89.69
2022-10-23T23:21:16.697Z,89.94
2022-10-23T23:23:46.512Z,89.86
2022-10-23T23:26:15.119Z,89.74
2022-10-23T23:28:43.126Z,89.78
2022-10-23T23:31:13.975Z,89.91
2022-10-23T23:33:41.950Z,89.80
2022-10-23T23:36:15.537Z,90.10
2022-10-23T23:38:43.498Z,89.87
2022-10-23T23:41:14.977Z,89.78
2022-10-23T23:43:43.141Z,90.04
2022-10-23T23:46:11.800Z,89.76
2022-10-23T23:48:39.892Z,90.03
2022-10-23T23:51:07.872Z,89.71
2022-10-23T23:53:35.877Z,89.88
2022-10-23T23:56:03.863Z,90.05
2022-10-23T23:58:33.204Z,89.92
